Time;durP1;ratioP1;P1;durP2;ratioP2;P2;SDS_P1;SDS_P2;PMS_P1;PMS_P2;Temp;Humidity;BMP_temperature;BMP_pressure;BME280_temperature;BME280_humidity;BME280_pressure;Samples;Min_cycle;Max_cycle;Signal;HPM_P1;HPM_P2
2022/02/01 00:00:46;;;;;;;3.43;3.10;;;15.70;59.30;;;;;;4909386;29;20461;-85
2022/02/01 00:03:16;;;;;;;2.77;2.57;;;15.60;59.30;;;;;;4915721;29;20529;-85
2022/02/01 00:05:53;;;;;;;3.10;2.90;;;15.60;59.20;;;;;;4913607;29;20475;-86
2022/02/01 00:08:31;;;;;;;4.53;3.10;;;15.60;59.30;;;;;;4900140;29;20480;-87
2022/02/01 00:11:10;;;;;;;4.37;3.03;;;15.60;59.20;;;;;;4919097;29;20459;-89
2022/02/01 00:13:46;;;;;;;4.97;3.20;;;15.60;59.20;;;;;;4919340;29;20473;-85
2022/02/01 00:19:24;;;;;;;2.90;2.60;;;15.60;59.30;;;;;;4881857;29;20438;-86
2022/02/01 00:33:20;;;;;;;3.87;2.90;;;15.40;59.20;;;;;;4904709;29;20484;-87
2022/02/01 00:35:55;;;;;;;5.10;3.00;;;15.40;59.10;;;;;;4885674;29;21040;-86
2022/02/01 00:38:29;;;;;;;3.73;2.87;;;15.30;59.10;;;;;;4887019;29;20482;-87
2022/02/01 00:41:03;;;;;;;4.67;3.20;;;15.30;59.30;;;;;;4884166;29;20455;-87
2022/02/01 00:43:31;;;;;;;4.33;3.10;;;15.30;59.00;;;;;;4884768;29;20482;-87
2022/02/01 00:46:02;;;;;;;4.63;3.10;;;15.30;59.10;;;;;;4883698;29;20479;-88
2022/02/01 00:48:30;;;;;;;11.07;3.17;;;15.30;59.00;;;;;;4906886;29;20449;-86
2022/02/01 00:50:59;;;;;;;5.07;2.93;;;15.30;59.00;;;;;;4896311;29;20439;-87
2022/02/01 00:53:31;;;;;;;6.47;3.10;;;15.20;58.80;;;;;;4896557;29;20886;-89
2022/02/01 00:55:59;;;;;;;3.63;2.57;;;15.20;58.90;;;;;;4897200;29;20446;-87
2022/02/01 00:58:28;;;;;;;3.00;2.67;;;15.30;59.00;;;;;;4897190;29;20457;-87
2022/02/01 01:00:56;;;;;;;4.00;3.00;;;15.30;59.00;;;;;;4878488;29;20451;-87
2022/02/01 01:03:25;;;;;;;2.93;2.73;;;15.20;58.80;;;;;;4891939;29;20483;-87
2022/02/01 01:05:54;;;;;;;6.43;3.20;;;15.20;58.70;;;;;;4897503;29;20533;-87
2022/02/01 01:08:22;;;;;;;7.23;2.97;;;15.20;58.90;;;;;;4893052;29;20465;-88
2022/02/01 01:10:51;;;;;;;10.00;3.20;;;15.20;58.90;;;;;;4893039;29;20450;-88
2022/02/01 01:13:42;;;;;;;5.70;3.03;;;15.20;58.80;;;;;;4879002;29;20518;-88
2022/02/01 01:16:22;;;;;;;8.20;3.33;;;15.20;58.90;;;;;;4881196;29;20455;-86
2022/02/01 01:43:43;;;;;;;2.63;2.43;;;15.20;58.90;;;;;;4916758;29;20490;-87
2022/02/01 01:52:46;;;;;;;3.70;3.10;;;15.20;59.00;;;;;;4916747;29;20432;-86
2022/02/01 01:54:38;;;;;;;6.37;3.00;;;15.20;59.10;;;;;;4906069;29;20509;-87
2022/02/01 01:57:06;;;;;;;5.87;3.60;;;15.20;59.20;;;;;;4896705;29;20485;-86
2022/02/01 01:59:36;;;;;;;4.17;2.73;;;15.20;59.00;;;;;;4897797;29;20450;-89
2022/02/01 02:02:04;;;;;;;5.20;3.00;;;15.20;59.20;;;;;;4896860;29;20450;-88
2022/02/01 02:04:32;;;;;;;3.23;2.83;;;15.20;59.00;;;;;;4898040;29;20486;-87
2022/02/01 02:07:00;;;;;;;5.57;3.23;;;15.30;59.10;;;;;;4897896;29;20461;-86
2022/02/01 02:09:28;;;;;;;4.30;2.97;;;15.20;58.90;;;;;;4897113;29;20510;-86
2022/02/01 02:12:07;;;;;;;8.83;3.23;;;15.20;59.10;;;;;;4897743;29;20511;-86
2022/02/01 02:14:42;;;;;;;3.50;2.70;;;15.20;59.10;;;;;;4897803;29;20465;-85
2022/02/01 02:17:10;;;;;;;4.20;3.00;;;15.20;59.00;;;;;;4903192;29;20449;-86
2022/02/01 02:19:38;;;;;;;2.70;2.50;;;15.20;59.10;;;;;;4903840;29;20458;-87
2022/02/01 02:22:08;;;;;;;4.60;2.80;;;15.20;59.00;;;;;;4901453;29;20457;-87
2022/02/01 02:24:38;;;;;;;3.30;3.00;;;15.20;59.00;;;;;;4897337;29;20509;-87
2022/02/01 02:27:06;;;;;;;3.33;3.00;;;15.20;59.10;;;;;;4911605;29;20460;-88
2022/02/01 02:29:35;;;;;;;5.73;2.90;;;15.10;59.10;;;;;;4916471;29;20448;-87
2022/02/01 02:32:05;;;;;;;6.43;2.80;;;15.10;59.00;;;;;;4916156;29;20453;-86
2022/02/01 02:34:33;;;;;;;3.93;2.70;;;15.10;58.90;;;;;;4916478;29;20465;-86
2022/02/01 02:37:06;;;;;;;5.37;2.73;;;15.10;59.00;;;;;;4912292;29;20533;-86
2022/02/01 02:39:47;;;;;;;9.30;3.30;;;15.00;58.80;;;;;;4916035;29;20445;-87
2022/02/01 02:42:27;;;;;;;6.10;3.17;;;15.00;58.90;;;;;;4918837;29;20508;-86
2022/02/01 02:45:09;;;;;;;4.43;2.80;;;15.00;59.00;;;;;;4906614;29;20525;-86
2022/02/01 02:47:37;;;;;;;4.00;2.73;;;15.00;58.90;;;;;;4919240;29;20476;-86
2022/02/01 02:50:06;;;;;;;4.40;3.13;;;15.00;58.80;;;;;;4919828;29;20509;-86
2022/02/01 02:52:34;;;;;;;7.70;3.07;;;15.00;58.90;;;;;;4919095;29;20473;-86
2022/02/01 02:55:04;;;;;;;3.20;2.27;;;15.00;58.90;;;;;;4919104;29;20476;-88
2022/02/01 02:57:33;;;;;;;5.27;2.80;;;15.00;58.90;;;;;;4919757;29;20452;-86
2022/02/01 03:00:01;;;;;;;5.23;2.90;;;15.00;59.10;;;;;;4908298;29;20456;-88
2022/02/01 03:02:30;;;;;;;5.40;2.93;;;15.00;58.90;;;;;;4919366;29;20448;-89
2022/02/01 03:04:58;;;;;;;3.13;2.70;;;15.00;58.90;;;;;;4918800;29;20488;-85
2022/02/01 03:07:27;;;;;;;6.23;3.00;;;14.90;58.60;;;;;;4919377;29;20476;-86
2022/02/01 03:09:55;;;;;;;5.20;2.53;;;15.00;58.70;;;;;;4919586;29;20448;-85
2022/02/01 03:12:45;;;;;;;4.87;2.57;;;15.00;58.70;;;;;;4920393;29;20453;-86
2022/02/01 03:15:34;;;;;;;4.70;2.20;;;14.90;58.60;;;;;;4916419;29;20523;-86
2022/02/01 03:20:48;;;;;;;4.83;2.63;;;14.90;58.60;;;;;;4882149;29;20446;-85
2022/02/01 03:23:16;;;;;;;5.40;2.20;;;14.90;58.80;;;;;;4881587;29;20486;-85
2022/02/01 03:25:44;;;;;;;4.20;2.83;;;14.90;58.60;;;;;;4881834;29;20482;-86
2022/02/01 03:28:14;;;;;;;4.27;2.73;;;14.90;58.60;;;;;;4881891;29;20459;-85
2022/02/01 03:30:42;;;;;;;6.70;3.00;;;14.90;58.60;;;;;;4881958;29;20447;-86
2022/02/01 03:33:10;;;;;;;4.73;2.77;;;14.80;58.50;;;;;;4884400;29;20512;-86
2022/02/01 03:35:39;;;;;;;3.23;2.50;;;14.80;58.50;;;;;;4885667;29;20507;-86
2022/02/01 03:38:07;;;;;;;3.57;2.83;;;14.80;58.60;;;;;;4887015;29;20459;-85
2022/02/01 03:40:35;;;;;;;2.43;2.23;;;14.80;58.50;;;;;;4885570;29;20454;-85
2022/02/01 03:43:03;;;;;;;4.03;2.87;;;14.80;58.70;;;;;;4885274;29;20454;-86
2022/02/01 03:45:33;;;;;;;8.63;3.43;;;14.80;58.40;;;;;;4884337;29;20482;-85
2022/02/01 03:48:01;;;;;;;7.83;2.97;;;14.70;58.40;;;;;;4884628;29;20467;-86
2022/02/01 03:50:29;;;;;;;3.60;2.53;;;14.80;58.40;;;;;;4884323;29;20479;-85
2022/02/01 03:52:57;;;;;;;6.20;2.80;;;14.80;58.40;;;;;;4883974;29;20958;-86
2022/02/01 03:55:25;;;;;;;3.87;2.60;;;14.80;58.50;;;;;;4883767;29;20479;-85
2022/02/01 03:57:53;;;;;;;3.40;2.20;;;14.70;58.30;;;;;;4884165;29;20474;-85
2022/02/01 04:00:21;;;;;;;6.70;2.47;;;14.70;58.40;;;;;;4884143;29;20455;-87
2022/02/01 04:02:50;;;;;;;3.40;2.60;;;14.70;58.20;;;;;;4884556;29;20872;-86
2022/02/01 04:05:18;;;;;;;4.10;2.53;;;14.70;58.20;;;;;;4884125;29;20486;-88
2022/02/01 04:07:48;;;;;;;7.67;2.80;;;14.70;58.20;;;;;;4884439;29;20454;-85
2022/02/01 04:10:18;;;;;;;7.33;2.60;;;14.70;58.40;;;;;;4884541;29;20492;-87
2022/02/01 04:12:48;;;;;;;6.30;3.00;;;14.70;58.20;;;;;;4884181;29;20454;-86
2022/02/01 04:15:18;;;;;;;3.37;2.20;;;14.70;58.10;;;;;;4884481;29;20451;-85
2022/02/01 04:17:46;;;;;;;7.90;3.07;;;14.70;58.30;;;;;;4883910;29;20458;-86
2022/02/01 04:20:16;;;;;;;6.43;2.60;;;14.60;58.20;;;;;;4883863;29;20497;-86
2022/02/01 04:22:47;;;;;;;8.67;2.70;;;14.60;58.20;;;;;;4883887;29;20455;-87
2022/02/01 04:25:15;;;;;;;9.27;2.87;;;14.60;58.20;;;;;;4883921;29;20483;-86
2022/02/01 04:27:43;;;;;;;7.73;2.80;;;14.60;58.10;;;;;;4883941;29;20959;-86
2022/02/01 04:30:17;;;;;;;4.07;2.40;;;14.60;58.30;;;;;;4884914;29;20483;-86
2022/02/01 04:32:56;;;;;;;5.53;2.50;;;14.50;58.00;;;;;;4884523;29;20482;-87
2022/02/01 04:35:39;;;;;;;3.83;2.43;;;14.50;58.00;;;;;;4884953;29;20471;-87
2022/02/01 04:38:08;;;;;;;4.10;2.43;;;14.50;58.00;;;;;;4884185;29;20458;-88
2022/02/01 04:40:37;;;;;;;3.83;1.90;;;14.50;58.00;;;;;;4883552;29;20458;-88
2022/02/01 04:43:07;;;;;;;9.27;2.90;;;14.50;57.80;;;;;;4883609;29;20530;-84
2022/02/01 04:45:35;;;;;;;6.93;2.57;;;14.40;57.80;;;;;;4883603;29;20474;-86
2022/02/01 04:48:03;;;;;;;9.50;2.93;;;14.50;57.90;;;;;;4883948;29;20458;-85
2022/02/01 04:50:33;;;;;;;5.10;2.77;;;14.50;57.90;;;;;;4883932;29;20450;-85
2022/02/01 04:53:01;;;;;;;8.70;1.93;;;14.40;57.80;;;;;;4883636;29;20455;-86
2022/02/01 04:55:43;;;;;;;4.50;2.60;;;14.40;57.70;;;;;;4883178;29;20482;-85
2022/02/01 04:58:11;;;;;;;6.40;2.77;;;14.40;57.90;;;;;;4883320;29;20419;-87
2022/02/01 05:00:39;;;;;;;5.97;2.37;;;14.40;57.80;;;;;;4883507;29;20486;-86
2022/02/01 05:03:07;;;;;;;3.40;2.27;;;14.40;57.80;;;;;;4882244;29;20443;-86
2022/02/01 05:05:37;;;;;;;5.30;2.13;;;14.40;57.80;;;;;;4882504;29;20478;-86
2022/02/01 05:08:08;;;;;;;7.43;2.93;;;14.40;57.70;;;;;;4875424;29;20458;-86
2022/02/01 05:10:37;;;;;;;3.97;1.80;;;14.40;57.70;;;;;;4882582;29;20458;-86
2022/02/01 05:13:30;;;;;;;4.13;2.37;;;14.40;57.80;;;;;;4882486;29;20451;-86
2022/02/01 05:16:04;;;;;;;4.33;2.40;;;14.50;57.90;;;;;;4881682;29;20524;-87
2022/02/01 05:18:39;;;;;;;3.73;2.17;;;14.50;57.70;;;;;;4881472;29;20454;-85
2022/02/01 05:21:11;;;;;;;5.13;2.20;;;14.50;57.70;;;;;;4881615;29;20506;-85
2022/02/01 05:23:39;;;;;;;4.73;2.30;;;14.50;57.70;;;;;;4882052;29;20482;-87
2022/02/01 05:26:07;;;;;;;5.27;2.10;;;14.50;57.60;;;;;;4893930;29;20472;-86
2022/02/01 05:28:37;;;;;;;4.50;2.07;;;14.50;57.80;;;;;;4919671;29;20548;-88
2022/02/01 05:31:05;;;;;;;3.37;2.40;;;14.50;57.80;;;;;;4920347;29;20509;-85
2022/02/01 05:33:33;;;;;;;3.30;2.03;;;14.50;57.80;;;;;;4919666;29;20480;-86
2022/02/01 05:36:02;;;;;;;3.43;2.30;;;14.50;57.70;;;;;;4917700;29;20483;-87
2022/02/01 05:38:31;;;;;;;5.60;2.30;;;14.50;57.70;;;;;;4916892;29;20452;-87
2022/02/01 05:40:59;;;;;;;5.23;2.10;;;14.50;57.70;;;;;;4916609;29;20604;-85
2022/02/01 05:43:28;;;;;;;7.40;2.60;;;14.50;57.70;;;;;;4913041;29;20496;-85
2022/02/01 05:45:57;;;;;;;4.83;2.23;;;14.50;57.80;;;;;;4910531;29;20473;-84
2022/02/01 05:48:25;;;;;;;4.03;2.23;;;14.50;57.70;;;;;;4916335;29;20536;-84
2022/02/01 05:50:55;;;;;;;4.53;2.27;;;14.50;57.90;;;;;;4916282;29;20483;-84
2022/02/01 05:53:23;;;;;;;3.67;1.83;;;14.50;57.80;;;;;;4916822;29;20555;-84
2022/02/01 05:55:52;;;;;;;5.50;2.20;;;14.50;57.70;;;;;;4918902;29;20449;-84
2022/02/01 05:58:21;;;;;;;1.90;1.80;;;14.50;57.80;;;;;;4918310;29;20537;-84
2022/02/01 06:00:49;;;;;;;2.73;2.03;;;14.60;57.80;;;;;;4905762;29;20450;-84
2022/02/01 06:03:18;;;;;;;5.10;2.47;;;14.50;57.70;;;;;;4913670;29;20521;-84
2022/02/01 06:05:46;;;;;;;6.17;2.30;;;14.60;57.90;;;;;;4916728;29;20504;-84
2022/02/01 06:08:14;;;;;;;2.90;2.33;;;14.60;57.80;;;;;;4917097;29;20662;-84
2022/02/01 06:10:42;;;;;;;5.40;2.77;;;14.60;58.00;;;;;;4916530;29;20452;-82
2022/02/01 06:13:11;;;;;;;6.30;2.23;;;14.50;57.80;;;;;;4916430;29;20488;-83
2022/02/01 06:15:39;;;;;;;3.90;1.93;;;14.50;57.80;;;;;;4917747;29;20944;-83
2022/02/01 06:18:07;;;;;;;4.90;2.10;;;14.60;57.80;;;;;;4908259;29;20461;-84
2022/02/01 06:20:35;;;;;;;3.83;2.03;;;14.50;57.80;;;;;;4919049;29;20504;-84
2022/02/01 06:23:03;;;;;;;4.57;1.83;;;14.60;57.90;;;;;;4917025;29;20524;-84
2022/02/01 06:25:48;;;;;;;2.97;2.03;;;14.50;57.80;;;;;;4920157;29;20480;-84
2022/02/01 06:28:17;;;;;;;4.67;1.93;;;14.50;57.80;;;;;;4920860;29;20448;-84
2022/02/01 06:30:46;;;;;;;2.60;1.70;;;14.50;58.00;;;;;;4920032;29;20737;-84
2022/02/01 06:33:14;;;;;;;4.43;1.90;;;14.50;57.90;;;;;;4914716;29;20461;-83
2022/02/01 06:35:42;;;;;;;4.40;2.10;;;14.50;57.80;;;;;;4912644;29;20509;-83
2022/02/01 06:38:11;;;;;;;5.00;2.30;;;14.60;58.00;;;;;;4920300;29;20477;-84
2022/02/01 06:40:39;;;;;;;5.17;2.50;;;14.50;57.80;;;;;;4920576;29;20461;-84
2022/02/01 06:43:07;;;;;;;3.47;2.33;;;14.60;58.00;;;;;;4920139;29;20456;-84
2022/02/01 06:45:36;;;;;;;5.13;2.37;;;14.60;57.80;;;;;;4920455;29;20467;-84
2022/02/01 06:48:04;;;;;;;3.57;2.10;;;14.60;57.90;;;;;;4918236;29;20459;-84
2022/02/01 06:50:34;;;;;;;5.20;2.23;;;14.60;57.90;;;;;;4910604;29;20509;-84
2022/02/01 06:53:03;;;;;;;2.70;1.90;;;14.50;57.70;;;;;;4920635;29;20448;-84
2022/02/01 06:55:44;;;;;;;4.53;2.47;;;14.60;57.90;;;;;;4920268;29;20476;-84
2022/02/01 06:58:12;;;;;;;2.50;1.53;;;14.50;57.80;;;;;;4920895;29;20448;-84
2022/02/01 07:00:41;;;;;;;3.27;1.97;;;14.60;57.80;;;;;;4923356;29;20452;-84
2022/02/01 07:03:10;;;;;;;4.03;2.00;;;14.50;57.90;;;;;;4927536;29;20476;-84
2022/02/01 07:05:38;;;;;;;4.97;1.90;;;14.60;57.90;;;;;;4922150;29;20453;-83
2022/02/01 07:08:06;;;;;;;7.43;2.10;;;14.60;57.70;;;;;;4910898;29;20953;-85
2022/02/01 07:10:34;;;;;;;3.30;2.00;;;14.60;57.80;;;;;;4920320;29;20464;-85
2022/02/01 07:13:02;;;;;;;6.73;2.60;;;14.60;57.80;;;;;;4921883;29;20476;-84
2022/02/01 07:15:30;;;;;;;3.43;2.07;;;14.60;57.80;;;;;;4922755;29;21019;-83
2022/02/01 07:18:00;;;;;;;3.73;2.40;;;14.50;57.60;;;;;;4921423;29;20508;-84
2022/02/01 07:20:28;;;;;;;3.73;2.20;;;14.60;57.90;;;;;;4921870;29;20449;-84
2022/02/01 07:22:56;;;;;;;3.87;2.10;;;14.60;57.90;;;;;;4921373;29;20452;-83
2022/02/01 07:25:29;;;;;;;7.10;2.23;;;14.60;57.80;;;;;;4904302;29;20478;-83
2022/02/01 07:27:57;;;;;;;2.50;1.83;;;14.60;57.90;;;;;;4921225;29;20574;-83
2022/02/01 07:30:27;;;;;;;3.97;2.27;;;14.60;57.60;;;;;;4921864;29;20953;-83
2022/02/01 07:32:55;;;;;;;2.60;2.13;;;14.70;57.90;;;;;;4921029;29;20452;-83
2022/02/01 07:35:25;;;;;;;2.40;1.83;;;14.60;57.60;;;;;;4921286;29;20538;-84
2022/02/01 07:37:54;;;;;;;3.73;1.90;;;14.60;57.70;;;;;;4921515;29;20453;-84
2022/02/01 07:40:22;;;;;;;4.07;1.97;;;14.60;58.20;;;;;;4915985;29;20509;-84
2022/02/01 07:42:50;;;;;;;4.00;1.77;;;14.70;57.80;;;;;;4913419;29;20508;-85
2022/02/01 07:45:19;;;;;;;3.43;2.20;;;14.70;57.70;;;;;;4921045;29;20476;-85
2022/02/01 07:47:47;;;;;;;4.77;2.27;;;14.70;57.70;;;;;;4920636;29;20945;-84
2022/02/01 07:50:15;;;;;;;5.57;2.10;;;14.70;57.70;;;;;;4920595;29;20544;-84
2022/02/01 07:52:46;;;;;;;4.70;1.87;;;14.70;57.60;;;;;;4921171;29;20487;-84
2022/02/01 07:55:14;;;;;;;2.63;2.23;;;14.70;57.70;;;;;;4921067;29;20480;-84
2022/02/01 07:57:42;;;;;;;2.97;1.90;;;14.70;57.60;;;;;;4912274;29;20540;-85
2022/02/01 08:00:11;;;;;;;4.17;2.00;;;14.70;58.10;;;;;;4913809;29;20453;-85
2022/02/01 08:02:39;;;;;;;7.53;2.23;;;14.80;57.60;;;;;;4920498;29;20472;-83
2022/02/01 08:05:17;;;;;;;2.60;1.93;;;14.80;57.60;;;;;;4920387;29;20477;-83
2022/02/01 08:07:46;;;;;;;3.80;2.17;;;14.70;57.60;;;;;;4919894;29;20484;-84
2022/02/01 08:10:16;;;;;;;5.73;2.00;;;14.70;57.60;;;;;;4920070;29;20532;-83
2022/02/01 08:18:34;;;;;;;6.90;2.07;;;14.80;58.30;;;;;;4920493;29;20445;-83
2022/02/01 08:21:04;;;;;;;6.10;2.17;;;14.80;57.60;;;;;;4919795;29;20482;-83
2022/02/01 08:23:34;;;;;;;2.60;1.80;;;14.90;57.60;;;;;;4920324;29;20515;-83
2022/02/01 08:26:02;;;;;;;3.67;1.73;;;14.90;57.60;;;;;;4919804;29;20441;-82
2022/02/01 08:28:30;;;;;;;6.33;1.87;;;14.90;57.60;;;;;;4908639;29;20567;-87
2022/02/01 08:31:03;;;;;;;3.23;1.70;;;14.90;57.40;;;;;;4911936;29;20429;-87
2022/02/01 08:33:31;;;;;;;5.67;1.97;;;14.90;57.50;;;;;;4917645;29;20521;-87
2022/02/01 08:35:59;;;;;;;3.43;1.93;;;14.90;57.30;;;;;;4922224;29;20444;-87
2022/02/01 08:38:27;;;;;;;3.60;2.20;;;14.90;57.40;;;;;;4917048;29;20480;-88
2022/02/01 08:40:58;;;;;;;4.17;1.60;;;14.90;57.30;;;;;;4917340;29;20480;-88
2022/02/01 08:43:26;;;;;;;3.93;1.83;;;15.00;57.40;;;;;;4917167;29;20445;-88
2022/02/01 08:45:53;;;;;;;3.30;1.80;;;15.00;57.40;;;;;;4908213;29;20461;-88
2022/02/01 08:48:21;;;;;;;2.70;2.23;;;15.00;57.30;;;;;;4898104;29;20477;-88
2022/02/01 08:50:50;;;;;;;3.33;2.03;;;15.00;57.40;;;;;;4898404;29;20445;-87
2022/02/01 08:53:22;;;;;;;2.93;1.80;;;15.00;57.20;;;;;;4897854;29;20470;-88
2022/02/01 08:56:03;;;;;;;4.90;2.30;;;14.90;57.30;;;;;;4897954;29;20548;-87
2022/02/01 08:58:32;;;;;;;3.33;1.60;;;15.00;57.30;;;;;;4899472;29;20486;-88
2022/02/01 09:01:00;;;;;;;3.63;1.83;;;15.00;57.30;;;;;;4905126;29;20465;-88
2022/02/01 09:03:29;;;;;;;6.73;2.30;;;15.00;57.30;;;;;;4915004;29;20449;-88
2022/02/01 09:05:57;;;;;;;3.87;2.27;;;15.00;57.30;;;;;;4916800;29;20437;-88
2022/02/01 09:08:25;;;;;;;2.83;1.77;;;15.10;57.40;;;;;;4916709;29;20480;-88
2022/02/01 09:10:53;;;;;;;5.27;2.00;;;15.10;57.30;;;;;;4916555;29;20504;-88
2022/02/01 09:13:21;;;;;;;4.27;1.90;;;15.10;57.20;;;;;;4916252;29;20441;-88
2022/02/01 09:15:51;;;;;;;3.53;1.77;;;15.00;57.40;;;;;;4916542;29;20452;-88
2022/02/01 09:18:18;;;;;;;5.37;1.70;;;15.10;57.30;;;;;;4913563;29;20485;-88
2022/02/01 09:20:47;;;;;;;4.23;1.90;;;15.10;57.30;;;;;;4901403;29;20537;-88
2022/02/01 09:23:14;;;;;;;3.00;1.80;;;15.10;57.10;;;;;;4891570;29;20533;-90
2022/02/01 09:25:44;;;;;;;4.93;2.37;;;15.10;57.30;;;;;;4886557;29;20451;-89
2022/02/01 09:28:12;;;;;;;2.80;1.60;;;15.10;57.20;;;;;;4889340;29;20550;-89
2022/02/01 09:30:40;;;;;;;6.33;2.13;;;15.10;57.20;;;;;;4890247;29;20506;-87
2022/02/01 09:33:11;;;;;;;8.80;2.20;;;15.10;57.20;;;;;;4883867;29;20462;-87
2022/02/01 09:35:40;;;;;;;4.33;2.47;;;15.20;57.30;;;;;;4896099;29;20485;-88
2022/02/01 09:38:08;;;;;;;8.03;2.17;;;15.10;57.10;;;;;;4904814;29;20449;-87
2022/02/01 09:40:46;;;;;;;5.40;2.70;;;15.10;57.20;;;;;;4897584;29;20457;-89
2022/02/01 09:43:14;;;;;;;4.00;1.83;;;15.10;57.00;;;;;;4883606;29;20454;-88
2022/02/01 09:45:42;;;;;;;4.47;1.87;;;15.10;57.20;;;;;;4886481;29;20442;-88
2022/02/01 09:48:32;;;;;;;6.90;2.60;;;15.10;57.20;;;;;;4888659;29;20480;-88
2022/02/01 09:51:02;;;;;;;5.57;2.33;;;15.00;57.20;;;;;;4885513;29;20434;-86
2022/02/01 09:53:29;;;;;;;4.90;1.73;;;15.00;57.30;;;;;;4894769;29;20553;-87
2022/02/01 09:55:57;;;;;;;4.10;2.30;;;15.00;57.40;;;;;;4911582;29;20537;-87
2022/02/01 09:58:30;;;;;;;4.30;2.23;;;15.00;57.10;;;;;;4898600;29;20875;-85
2022/02/01 10:00:58;;;;;;;3.27;2.03;;;15.00;57.10;;;;;;4884162;29;20477;-84
2022/02/01 10:03:26;;;;;;;4.30;2.53;;;15.00;57.30;;;;;;4898880;29;20516;-83
2022/02/01 10:06:06;;;;;;;3.83;2.07;;;15.00;57.50;;;;;;4903374;29;20461;-84
2022/02/01 10:08:34;;;;;;;3.43;2.03;;;15.00;57.90;;;;;;4900999;29;20531;-84
2022/02/01 10:11:02;;;;;;;10.50;2.00;;;15.00;57.20;;;;;;4903397;29;20465;-85
2022/02/01 10:13:35;;;;;;;3.77;2.30;;;15.00;58.00;;;;;;4906520;29;20525;-87
2022/02/01 10:16:10;;;;;;;4.00;2.20;;;15.10;57.50;;;;;;4900631;29;20445;-85
2022/02/01 10:18:38;;;;;;;4.87;2.30;;;15.00;57.30;;;;;;4910953;29;20514;-84
2022/02/01 10:21:08;;;;;;;4.00;1.83;;;15.10;57.50;;;;;;4905839;29;20449;-83
2022/02/01 10:23:37;;;;;;;4.30;2.30;;;15.10;57.20;;;;;;4906007;29;20485;-83
2022/02/01 10:26:07;;;;;;;5.23;2.17;;;15.10;57.30;;;;;;4905763;29;20457;-84
2022/02/01 10:28:46;;;;;;;3.77;2.63;;;15.00;57.40;;;;;;4904664;29;20501;-84
2022/02/01 10:31:16;;;;;;;2.93;2.20;;;15.00;57.40;;;;;;4903325;29;20541;-84
2022/02/01 10:34:01;;;;;;;2.50;1.97;;;15.00;57.30;;;;;;4895697;29;20581;-83
2022/02/01 10:36:38;;;;;;;5.20;2.03;;;15.00;57.30;;;;;;4898813;29;20473;-84
2022/02/01 10:39:17;;;;;;;2.43;1.80;;;15.10;57.50;;;;;;4898971;29;20524;-84
2022/02/01 10:41:55;;;;;;;2.40;2.20;;;15.00;57.40;;;;;;4898185;29;20485;-83
2022/02/01 10:44:24;;;;;;;2.87;2.13;;;15.00;57.40;;;;;;4901791;29;20476;-84
2022/02/01 10:46:52;;;;;;;2.13;1.93;;;15.00;57.30;;;;;;4903618;29;20461;-83
2022/02/01 10:49:29;;;;;;;3.20;1.70;;;15.10;57.40;;;;;;4891732;29;20462;-84
2022/02/01 10:52:03;;;;;;;2.30;1.87;;;15.10;57.40;;;;;;4887619;29;20461;-84
2022/02/01 10:54:45;;;;;;;2.50;2.30;;;15.10;57.50;;;;;;4904860;29;20500;-85
2022/02/01 10:57:15;;;;;;;2.67;1.60;;;15.10;57.50;;;;;;4917994;29;20957;-85
2022/02/01 10:59:43;;;;;;;3.50;1.90;;;15.10;57.40;;;;;;4918235;29;20449;-84
2022/02/01 11:02:10;;;;;;;3.83;1.77;;;15.10;57.50;;;;;;4916500;29;20437;-84
2022/02/01 11:04:39;;;;;;;2.47;2.07;;;15.10;57.60;;;;;;4923026;29;20537;-84
2022/02/01 11:07:08;;;;;;;2.20;1.63;;;15.10;57.40;;;;;;4917594;29;20549;-83
2022/02/01 11:09:37;;;;;;;2.73;1.77;;;15.20;57.60;;;;;;4904593;29;20497;-83
2022/02/01 11:12:06;;;;;;;3.90;1.90;;;15.20;57.40;;;;;;4885655;29;20542;-84
2022/02/01 11:14:39;;;;;;;2.60;1.47;;;15.20;57.40;;;;;;4913566;29;20513;-85
2022/02/01 11:17:08;;;;;;;2.50;2.00;;;15.20;57.30;;;;;;4904658;29;20454;-85
2022/02/01 11:19:46;;;;;;;2.73;2.00;;;15.20;57.40;;;;;;4921606;29;20441;-83
2022/02/01 11:22:31;;;;;;;1.73;1.53;;;15.20;57.30;;;;;;4912417;29;20469;-84
2022/02/01 11:24:59;;;;;;;3.33;1.90;;;15.20;57.30;;;;;;4920108;29;20984;-83
2022/02/01 11:27:42;;;;;;;2.27;1.70;;;15.30;57.40;;;;;;4897564;29;20450;-86
2022/02/01 11:30:13;;;;;;;2.00;1.80;;;15.30;57.50;;;;;;4903088;29;20480;-83
2022/02/01 11:32:48;;;;;;;2.80;1.50;;;15.30;57.40;;;;;;4913896;29;20473;-83
2022/02/01 11:35:21;;;;;;;2.30;1.80;;;15.30;57.40;;;;;;4907580;29;20453;-85
2022/02/01 11:38:14;;;;;;;3.53;1.90;;;15.30;57.90;;;;;;4910180;29;20464;-86
2022/02/01 11:40:46;;;;;;;2.27;1.53;;;15.30;57.40;;;;;;4910879;29;20444;-82
2022/02/01 11:43:35;;;;;;;2.77;1.70;;;15.30;57.40;;;;;;4907568;29;20476;-82
2022/02/01 11:46:07;;;;;;;1.60;1.50;;;15.30;57.40;;;;;;4922443;29;20437;-83
2022/02/01 11:48:38;;;;;;;2.83;1.90;;;15.30;57.50;;;;;;4921511;29;20480;-84
2022/02/01 11:51:07;;;;;;;3.90;1.57;;;15.40;57.40;;;;;;4898364;29;20490;-84
2022/02/01 11:53:41;;;;;;;1.63;1.53;;;15.40;57.50;;;;;;4902313;29;20477;-84
2022/02/01 11:56:09;;;;;;;1.50;1.40;;;15.40;57.40;;;;;;4902956;29;20450;-84
2022/02/01 11:58:38;;;;;;;2.87;1.53;;;15.40;57.50;;;;;;4915060;29;20477;-83
2022/02/01 12:01:07;;;;;;;2.20;1.93;;;15.40;57.50;;;;;;4916006;29;20445;-83
2022/02/01 12:03:39;;;;;;;2.63;1.30;;;15.40;57.50;;;;;;4920676;29;20509;-84
2022/02/01 12:06:09;;;;;;;1.43;1.33;;;15.40;57.40;;;;;;4918840;29;20528;-85
2022/02/01 12:08:41;;;;;;;2.80;1.43;;;15.30;57.50;;;;;;4912323;29;20552;-81
2022/02/01 12:11:13;;;;;;;1.30;1.20;;;15.40;57.50;;;;;;4907928;29;20441;-83
2022/02/01 12:13:40;;;;;;;1.50;1.40;;;15.40;57.50;;;;;;4902287;29;20451;-83
2022/02/01 12:16:11;;;;;;;1.70;1.60;;;15.40;57.50;;;;;;4909499;29;20458;-83
2022/02/01 12:18:44;;;;;;;1.77;1.30;;;15.40;57.50;;;;;;4908534;29;20515;-83
2022/02/01 12:21:25;;;;;;;1.50;1.40;;;15.50;57.60;;;;;;4901738;29;20454;-83
2022/02/01 12:23:54;;;;;;;1.60;1.50;;;15.50;58.20;;;;;;4900412;29;20545;-82
2022/02/01 12:26:24;;;;;;;1.53;1.43;;;15.50;57.60;;;;;;4904630;29;20441;-83
2022/02/01 12:28:54;;;;;;;1.10;1.10;;;15.50;57.50;;;;;;4905837;29;20466;-81
2022/02/01 12:31:23;;;;;;;1.43;1.33;;;15.50;57.30;;;;;;4906313;29;20453;-83
2022/02/01 12:33:54;;;;;;;2.03;1.20;;;15.60;57.60;;;;;;4903216;29;20476;-82
2022/02/01 12:36:33;;;;;;;1.60;1.50;;;15.60;57.50;;;;;;4899212;29;20444;-82
2022/02/01 12:39:02;;;;;;;1.77;1.67;;;15.70;57.50;;;;;;4900884;29;20442;-81
2022/02/01 12:41:40;;;;;;;1.40;1.30;;;15.60;57.40;;;;;;4908619;29;20449;-82
2022/02/01 12:46:56;;;;;;;1.20;1.10;;;15.60;57.50;;;;;;4917272;29;20433;-81
2022/02/01 12:49:36;;;;;;;1.43;1.10;;;15.60;57.60;;;;;;4910845;29;20489;-82
2022/02/01 12:52:05;;;;;;;1.40;1.30;;;15.70;57.70;;;;;;4916852;29;20460;-81
2022/02/01 12:54:37;;;;;;;1.63;1.20;;;15.70;57.70;;;;;;4912060;29;20497;-82
2022/02/01 12:57:07;;;;;;;1.30;1.20;;;15.70;57.60;;;;;;4921148;29;20437;-81
2022/02/01 12:59:41;;;;;;;1.10;1.10;;;15.70;57.50;;;;;;4914529;29;20438;-82
2022/02/01 13:02:09;;;;;;;1.33;1.23;;;15.70;57.40;;;;;;4911779;29;20449;-81
2022/02/01 13:04:38;;;;;;;1.50;1.40;;;15.80;57.60;;;;;;4912492;29;20528;-81
2022/02/01 13:07:15;;;;;;;1.27;1.17;;;15.80;57.60;;;;;;4912925;29;20520;-81
2022/02/01 13:15:27;;;;;;;1.30;1.20;;;15.80;57.50;;;;;;4918167;29;20470;-82
2022/02/01 13:18:15;;;;;;;1.47;1.20;;;15.90;57.50;;;;;;4899906;29;20462;-80
2022/02/01 13:20:57;;;;;;;1.33;1.23;;;16.00;57.60;;;;;;4896364;29;20438;-80
2022/02/01 13:23:34;;;;;;;1.90;1.20;;;15.90;57.40;;;;;;4895614;29;20445;-80
2022/02/01 13:26:07;;;;;;;1.60;1.50;;;16.00;57.50;;;;;;4892861;29;20439;-80
2022/02/01 13:29:00;;;;;;;1.63;1.20;;;15.90;57.40;;;;;;4894296;29;20528;-81
2022/02/01 13:31:31;;;;;;;2.27;1.43;;;16.00;58.10;;;;;;4894792;29;20460;-79
2022/02/01 13:34:04;;;;;;;1.33;1.23;;;16.10;57.40;;;;;;4897220;29;21008;-80
2022/02/01 13:36:32;;;;;;;4.60;1.60;;;16.10;57.40;;;;;;4900571;29;20834;-81
2022/02/01 13:39:03;;;;;;;1.70;1.53;;;16.10;57.40;;;;;;4909077;29;20465;-82
2022/02/01 13:41:33;;;;;;;1.40;1.30;;;16.10;57.40;;;;;;4900971;29;20492;-82
2022/02/01 13:44:02;;;;;;;2.00;1.23;;;16.10;57.20;;;;;;4883432;29;20475;-81
2022/02/01 13:46:31;;;;;;;2.10;1.60;;;16.20;57.20;;;;;;4892487;29;20450;-82
2022/02/01 13:49:00;;;;;;;1.60;1.50;;;16.20;57.20;;;;;;4908813;29;20445;-83
2022/02/01 13:51:28;;;;;;;4.93;1.43;;;16.20;57.20;;;;;;4900600;29;20481;-83
2022/02/01 13:54:00;;;;;;;1.73;1.47;;;16.20;57.00;;;;;;4902790;29;20485;-83
2022/02/01 13:56:29;;;;;;;3.80;1.67;;;16.30;57.30;;;;;;4912013;29;20457;-84
2022/02/01 13:59:08;;;;;;;2.07;1.27;;;16.30;57.10;;;;;;4919850;29;20444;-84
2022/02/01 14:01:36;;;;;;;1.70;1.53;;;16.30;57.20;;;;;;4919539;29;20462;-82
2022/02/01 14:04:28;;;;;;;3.20;2.10;;;16.30;57.10;;;;;;4903985;29;20537;-82
2022/02/01 14:07:14;;;;;;;2.10;1.50;;;16.30;57.00;;;;;;4907299;29;20438;-81